createdAt,value
2022-10-19T00:00:48.909Z,2.38
2022-10-19T00:03:19.413Z,2.10
2022-10-19T00:05:48.887Z,2.38
2022-10-19T00:08:15.421Z,2.40
2022-10-19T00:10:41.957Z,2.27
2022-10-19T00:13:08.592Z,2.65
2022-10-19T00:15:39.929Z,2.70
2022-10-19T00:18:08.034Z,2.30
2022-10-19T00:20:37.038Z,1.92
2022-10-19T00:23:04.066Z,1.80
2022-10-19T00:25:30.714Z,2.10
2022-10-19T00:27:57.240Z,2.20
2022-10-19T00:30:23.934Z,2.08
2022-10-19T00:32:50.399Z,2.03
2022-10-19T00:35:17.108Z,1.97
2022-10-19T00:37:43.663Z,2.25
2022-10-19T00:40:10.482Z,1.75
2022-10-19T00:42:37.100Z,2.00
2022-10-19T00:45:11.978Z,1.98
2022-10-19T00:47:39.034Z,1.60
2022-10-19T00:50:06.077Z,1.30
2022-10-19T00:52:33.016Z,1.35
2022-10-19T00:54:59.866Z,1.80
2022-10-19T00:57:29.488Z,1.33
2022-10-19T00:59:57.571Z,1.40
2022-10-19T01:02:24.144Z,1.83
2022-10-19T01:04:52.094Z,1.30
2022-10-19T01:07:19.874Z,0.90
2022-10-19T01:09:46.476Z,1.52
2022-10-19T01:12:34.019Z,1.00
2022-10-19T01:15:18.830Z,1.10
2022-10-19T01:18:27.177Z,1.10
2022-10-19T01:21:11.798Z,0.90
2022-10-19T01:24:06.326Z,1.02
2022-10-19T01:26:35.912Z,1.30
2022-10-19T01:29:17.746Z,1.27
2022-10-19T01:31:50.966Z,1.00
2022-10-19T01:34:31.658Z,1.10
2022-10-19T01:37:08.959Z,1.27
2022-10-19T01:39:50.079Z,1.10
2022-10-19T01:42:28.402Z,1.20
2022-10-19T01:45:07.672Z,1.20
2022-10-19T01:47:41.291Z,1.30
2022-10-19T01:50:11.054Z,0.90
2022-10-19T01:52:40.827Z,1.13
2022-10-19T01:55:10.434Z,1.00
2022-10-19T01:57:41.710Z,0.90
2022-10-19T02:00:12.306Z,1.17
2022-10-19T02:02:43.225Z,2.05
2022-10-19T02:05:11.180Z,1.00
2022-10-19T02:07:40.192Z,0.85
2022-10-19T02:10:07.723Z,1.20
2022-10-19T02:12:36.787Z,0.98
2022-10-19T02:15:11.554Z,0.90
2022-10-19T02:17:46.329Z,0.60
2022-10-19T02:20:14.805Z,0.80
2022-10-19T02:22:41.745Z,0.73
2022-10-19T02:25:09.604Z,0.85
2022-10-19T02:27:38.544Z,0.80
2022-10-19T02:30:05.894Z,0.93
2022-10-19T02:32:32.772Z,1.00
2022-10-19T02:34:59.670Z,1.13
2022-10-19T02:37:26.413Z,0.80
2022-10-19T02:39:53.183Z,0.60
2022-10-19T02:42:40.002Z,0.57
2022-10-19T02:45:11.343Z,0.60
2022-10-19T02:48:10.173Z,1.38
2022-10-19T02:50:37.265Z,0.52
2022-10-19T02:53:03.825Z,0.80
2022-10-19T02:55:31.108Z,0.83
2022-10-19T02:57:57.879Z,0.60
2022-10-19T03:00:24.364Z,0.85
2022-10-19T03:02:50.961Z,0.80
2022-10-19T03:05:17.446Z,0.90
2022-10-19T03:07:44.064Z,0.60
2022-10-19T03:10:10.647Z,0.60
2022-10-19T03:12:37.137Z,0.80
2022-10-19T03:15:04.207Z,1.33
2022-10-19T03:17:30.807Z,0.60
2022-10-19T03:19:57.494Z,0.70
2022-10-19T03:22:23.969Z,0.57
2022-10-19T03:24:50.666Z,0.80
2022-10-19T03:27:17.173Z,0.88
2022-10-19T03:29:43.646Z,0.50
2022-10-19T03:32:10.352Z,0.40
2022-10-19T03:34:36.927Z,0.47
2022-10-19T03:37:03.499Z,0.50
2022-10-19T03:39:30.006Z,0.35
2022-10-19T03:41:56.498Z,0.43
2022-10-19T03:44:23.062Z,0.30
2022-10-19T03:46:49.595Z,0.40
2022-10-19T03:49:16.092Z,0.40
2022-10-19T03:51:42.779Z,0.30
2022-10-19T03:54:14.758Z,0.57
2022-10-19T03:56:42.158Z,0.30
2022-10-19T03:59:12.421Z,0.30
2022-10-19T04:01:42.013Z,0.40
2022-10-19T04:04:15.143Z,0.25
2022-10-19T04:06:43.455Z,0.40
2022-10-19T04:09:12.987Z,0.27
2022-10-19T04:11:39.926Z,0.38
2022-10-19T04:14:06.877Z,0.30
2022-10-19T04:16:33.777Z,0.25
2022-10-19T04:19:00.657Z,0.40
2022-10-19T04:21:30.497Z,0.30
2022-10-19T04:24:03.051Z,0.30
2022-10-19T04:26:29.946Z,0.38
2022-10-19T04:29:00.868Z,0.43
2022-10-19T04:31:28.318Z,0.52
2022-10-19T04:33:55.202Z,0.30
2022-10-19T04:36:22.111Z,0.30
2022-10-19T04:38:48.672Z,0.60
2022-10-19T04:41:17.821Z,0.22
2022-10-19T04:43:47.969Z,0.30
2022-10-19T04:46:19.323Z,0.40
2022-10-19T04:48:47.802Z,0.40
2022-10-19T04:51:15.075Z,0.40
2022-10-19T04:53:42.694Z,0.38
2022-10-19T04:56:12.910Z,0.50
2022-10-19T04:58:39.439Z,0.40
2022-10-19T05:01:32.111Z,0.55
2022-10-19T05:04:01.433Z,0.40
2022-10-19T05:06:29.477Z,0.40
2022-10-19T05:08:56.049Z,0.40
2022-10-19T05:11:22.641Z,0.40
2022-10-19T05:13:49.512Z,0.43
2022-10-19T05:16:19.029Z,0.60
2022-10-19T05:18:50.087Z,0.40
2022-10-19T05:21:18.145Z,0.40
2022-10-19T05:23:45.053Z,0.50
2022-10-19T05:26:20.323Z,0.43
2022-10-19T05:28:56.246Z,0.47
2022-10-19T05:31:25.646Z,0.52
2022-10-19T05:33:52.277Z,0.40
2022-10-19T05:36:21.687Z,0.57
2022-10-19T05:38:50.124Z,0.43
2022-10-19T05:41:17.041Z,0.50
2022-10-19T05:43:44.130Z,0.60
2022-10-19T05:46:13.827Z,0.50
2022-10-19T05:48:40.518Z,0.50
2022-10-19T05:51:10.394Z,0.70
2022-10-19T05:56:12.833Z,0.60
2022-10-19T05:58:39.525Z,0.90
2022-10-19T06:01:06.493Z,0.30
2022-10-19T06:03:32.962Z,0.40
2022-10-19T06:06:03.573Z,0.40
2022-10-19T06:08:30.451Z,0.40
2022-10-19T06:11:17.162Z,0.40
2022-10-19T06:13:45.637Z,0.47
2022-10-19T06:16:14.579Z,0.45
2022-10-19T06:18:42.852Z,0.85
2022-10-19T06:21:15.524Z,0.50
2022-10-19T06:26:14.864Z,0.60
2022-10-19T06:28:43.077Z,0.50
2022-10-19T06:31:10.313Z,0.77
2022-10-19T06:33:37.324Z,0.55
2022-10-19T06:36:08.997Z,0.60
2022-10-19T06:38:35.451Z,0.60
2022-10-19T06:41:02.069Z,0.85
2022-10-19T06:43:28.728Z,0.60
2022-10-19T06:45:55.299Z,0.50
2022-10-19T06:48:21.926Z,0.68
2022-10-19T06:50:56.605Z,0.50
2022-10-19T06:53:23.166Z,0.70
2022-10-19T06:55:49.748Z,0.95
2022-10-19T06:58:16.282Z,0.90
2022-10-19T07:00:42.859Z,0.70
2022-10-19T07:03:09.458Z,0.53
2022-10-19T07:05:35.957Z,0.60
2022-10-19T07:08:02.591Z,0.60
2022-10-19T07:10:29.117Z,0.45
2022-10-19T07:12:56.478Z,0.60
2022-10-19T07:15:23.039Z,0.60
2022-10-19T07:17:49.502Z,0.50
2022-10-19T07:20:16.077Z,0.52
2022-10-19T07:22:42.519Z,0.55
2022-10-19T07:25:09.136Z,0.60
2022-10-19T07:27:37.812Z,0.47
2022-10-19T07:30:05.449Z,0.50
2022-10-19T07:32:31.847Z,0.70
2022-10-19T07:34:58.278Z,0.50
2022-10-19T07:37:24.822Z,0.47
2022-10-19T07:39:51.525Z,0.53
2022-10-19T07:42:18.212Z,0.40
2022-10-19T07:44:44.748Z,0.57
2022-10-19T07:47:11.378Z,0.50
2022-10-19T07:49:38.289Z,0.73
2022-10-19T07:52:05.373Z,0.70
2022-10-19T07:54:31.850Z,0.55
2022-10-19T07:56:58.382Z,0.70
2022-10-19T07:59:24.918Z,0.60
2022-10-19T08:01:53.053Z,0.40
2022-10-19T08:07:06.058Z,0.57
2022-10-19T08:09:53.172Z,0.50
2022-10-19T08:12:19.223Z,0.50
2022-10-19T08:14:45.785Z,0.40
2022-10-19T08:17:16.484Z,0.50
2022-10-19T08:19:44.292Z,0.50
2022-10-19T08:22:11.154Z,0.50
2022-10-19T08:24:37.929Z,0.40
2022-10-19T08:27:04.890Z,0.68
2022-10-19T08:29:31.881Z,0.50
2022-10-19T08:31:59.066Z,0.60
2022-10-19T08:34:25.724Z,0.52
2022-10-19T08:36:52.312Z,0.50
2022-10-19T08:39:18.981Z,0.57
2022-10-19T08:41:51.191Z,0.57
2022-10-19T08:44:36.651Z,0.40
2022-10-19T08:47:39.841Z,0.55
2022-10-19T08:50:30.804Z,0.70
2022-10-19T08:53:07.613Z,0.43
2022-10-19T08:55:43.112Z,0.60
2022-10-19T08:58:36.488Z,0.50
2022-10-19T09:01:13.565Z,0.60
2022-10-19T09:03:55.493Z,1.00
2022-10-19T09:06:31.986Z,0.60
2022-10-19T09:08:59.359Z,0.40
2022-10-19T09:11:37.202Z,0.60
2022-10-19T09:14:13.037Z,0.50
2022-10-19T09:16:39.514Z,0.40
2022-10-19T09:19:25.602Z,0.70
2022-10-19T09:22:04.243Z,0.50
2022-10-19T09:24:44.985Z,0.40
2022-10-19T09:27:23.203Z,0.60
2022-10-19T09:29:57.390Z,0.77
2022-10-19T09:32:32.188Z,0.70
2022-10-19T09:35:02.683Z,0.47
2022-10-19T09:40:01.624Z,0.50
2022-10-19T09:42:33.026Z,0.35
2022-10-19T09:45:02.813Z,0.30
2022-10-19T09:47:37.066Z,0.40
2022-10-19T09:50:23.975Z,0.40
2022-10-19T09:53:04.901Z,0.43
2022-10-19T09:55:43.970Z,0.47
2022-10-19T09:58:13.255Z,0.30
2022-10-19T10:00:47.053Z,0.40
2022-10-19T10:03:32.387Z,0.45
2022-10-19T10:06:04.055Z,0.40
2022-10-19T10:08:34.292Z,0.50
2022-10-19T10:11:15.617Z,0.57
2022-10-19T10:13:49.727Z,0.50
2022-10-19T10:16:18.593Z,0.30
2022-10-19T10:18:55.632Z,0.88
2022-10-19T10:21:25.471Z,0.20
2022-10-19T10:24:12.033Z,0.25
2022-10-19T10:26:41.180Z,0.30
2022-10-19T10:29:26.022Z,0.40
2022-10-19T10:31:55.958Z,0.30
2022-10-19T10:34:46.366Z,0.40
2022-10-19T10:37:21.591Z,0.32
2022-10-19T10:39:52.589Z,0.30
2022-10-19T10:42:25.719Z,0.47
2022-10-19T10:44:54.110Z,0.40
2022-10-19T10:47:21.195Z,0.40
2022-10-19T10:50:05.844Z,0.40
2022-10-19T10:52:33.268Z,0.40
2022-10-19T10:55:16.887Z,0.30
2022-10-19T10:57:53.590Z,0.20
2022-10-19T11:00:23.966Z,0.20
2022-10-19T11:03:05.124Z,0.30
2022-10-19T11:05:36.041Z,0.47
2022-10-19T11:08:50.042Z,0.30
2022-10-19T11:11:47.591Z,0.30
2022-10-19T11:14:36.756Z,0.30
2022-10-19T11:17:15.626Z,0.30
2022-10-19T11:19:45.084Z,0.27
2022-10-19T11:22:26.393Z,0.40
2022-10-19T11:25:02.068Z,0.65
2022-10-19T11:27:54.236Z,0.43
2022-10-19T11:30:23.313Z,0.60
2022-10-19T11:33:06.298Z,0.30
2022-10-19T11:35:41.691Z,0.30
2022-10-19T11:38:30.052Z,0.30
2022-10-19T11:41:17.886Z,0.30
2022-10-19T11:44:01.011Z,0.30
2022-10-19T11:46:32.827Z,0.87
2022-10-19T11:49:25.112Z,0.30
2022-10-19T11:51:58.228Z,0.25
2022-10-19T11:54:55.897Z,0.50
2022-10-19T11:57:52.233Z,0.50
2022-10-19T12:00:38.036Z,0.40
2022-10-19T12:03:26.451Z,0.40
2022-10-19T12:06:28.447Z,0.60
2022-10-19T12:09:28.133Z,0.22
2022-10-19T12:12:22.155Z,0.30
2022-10-19T12:14:52.916Z,0.20
2022-10-19T12:17:26.778Z,0.50
2022-10-19T12:20:00.049Z,0.30
2022-10-19T12:22:29.421Z,0.30
2022-10-19T12:25:00.271Z,0.75
2022-10-19T12:27:38.977Z,0.20
2022-10-19T12:30:19.908Z,0.50
2022-10-19T12:32:55.706Z,0.30
2022-10-19T12:35:46.209Z,0.47
2022-10-19T12:38:50.978Z,0.50
2022-10-19T12:41:33.968Z,2.80
2022-10-19T12:44:20.554Z,7.18
2022-10-19T12:46:58.773Z,3.78
2022-10-19T12:49:29.802Z,2.40
2022-10-19T12:52:01.058Z,0.82
2022-10-19T12:54:30.987Z,0.50
2022-10-19T12:57:00.319Z,0.45
2022-10-19T12:59:31.130Z,1.70
2022-10-19T13:01:59.226Z,1.70
2022-10-19T13:04:29.449Z,1.20
2022-10-19T13:07:02.568Z,0.70
2022-10-19T13:09:39.585Z,0.57
2022-10-19T13:12:22.021Z,0.40
2022-10-19T13:14:52.632Z,0.40
2022-10-19T13:17:34.697Z,0.60
2022-10-19T13:20:13.366Z,0.47
2022-10-19T13:23:05.995Z,0.60
2022-10-19T13:25:42.489Z,0.60
2022-10-19T13:28:09.306Z,0.55
2022-10-19T13:30:35.842Z,0.50
2022-10-19T13:33:31.442Z,0.40
2022-10-19T13:36:02.245Z,0.60
2022-10-19T13:38:29.901Z,0.75
2022-10-19T13:41:08.806Z,0.88
2022-10-19T13:43:44.079Z,0.50
2022-10-19T13:46:21.624Z,0.50
2022-10-19T13:49:09.644Z,0.47
2022-10-19T13:51:57.624Z,0.32
2022-10-19T13:54:27.070Z,0.40
2022-10-19T13:57:20.818Z,0.40
2022-10-19T14:00:12.112Z,0.40
2022-10-19T14:02:56.872Z,0.40
2022-10-19T14:05:54.123Z,0.30
2022-10-19T14:08:42.376Z,0.52
2022-10-19T14:11:21.592Z,0.50
2022-10-19T14:14:12.015Z,0.40
2022-10-19T14:16:55.974Z,0.50
2022-10-19T14:19:31.195Z,0.40
2022-10-19T14:22:01.189Z,0.40
2022-10-19T14:24:35.536Z,0.40
2022-10-19T14:27:04.552Z,0.43
2022-10-19T14:29:44.253Z,0.50
2022-10-19T14:32:11.847Z,0.50
2022-10-19T14:34:43.647Z,0.50
2022-10-19T14:37:19.395Z,0.40
2022-10-19T14:40:26.340Z,0.40
2022-10-19T14:42:55.202Z,0.60
2022-10-19T14:45:25.697Z,0.50
2022-10-19T14:47:57.141Z,0.47
2022-10-19T14:50:44.604Z,0.50
2022-10-19T14:53:32.428Z,0.40
2022-10-19T14:56:04.958Z,0.55
2022-10-19T14:58:39.214Z,0.47
2022-10-19T15:01:06.444Z,0.30
2022-10-19T15:03:33.503Z,0.30
2022-10-19T15:06:04.432Z,0.30
2022-10-19T15:08:47.580Z,0.30
2022-10-19T15:11:41.999Z,0.40
2022-10-19T15:14:14.052Z,0.40
2022-10-19T15:16:51.000Z,0.30
2022-10-19T15:19:29.843Z,0.50
2022-10-19T15:22:14.469Z,0.35
2022-10-19T15:24:55.931Z,0.52
2022-10-19T15:27:30.147Z,0.60
2022-10-19T15:29:56.614Z,0.43
2022-10-19T15:32:26.349Z,0.60
2022-10-19T15:34:52.935Z,0.77
2022-10-19T15:37:22.541Z,0.70
2022-10-19T15:39:51.003Z,0.68
2022-10-19T15:42:35.894Z,1.17
2022-10-19T15:45:04.053Z,0.90
2022-10-19T15:47:31.134Z,1.90
2022-10-19T15:50:02.145Z,1.52
2022-10-19T15:52:32.976Z,1.80
2022-10-19T15:55:01.059Z,2.55
2022-10-19T15:57:34.283Z,2.60
2022-10-19T16:00:12.148Z,2.72
2022-10-19T16:02:39.171Z,2.42
2022-10-19T16:07:40.210Z,1.00
2022-10-19T16:10:08.106Z,1.90
2022-10-19T16:12:34.553Z,2.30
2022-10-19T16:15:01.126Z,3.10
2022-10-19T16:17:27.722Z,3.60
2022-10-19T16:19:54.270Z,3.08
2022-10-19T16:22:20.795Z,3.43
2022-10-19T16:24:47.361Z,2.72
2022-10-19T16:27:16.981Z,2.70
2022-10-19T16:29:44.659Z,2.83
2022-10-19T16:32:11.594Z,3.03
2022-10-19T16:34:38.144Z,2.50
2022-10-19T16:37:06.894Z,2.60
2022-10-19T16:39:34.667Z,2.90
2022-10-19T16:42:01.305Z,4.72
2022-10-19T16:44:27.817Z,5.75
2022-10-19T16:46:56.582Z,7.77
2022-10-19T16:49:23.144Z,9.27
2022-10-19T16:51:51.979Z,8.80
2022-10-19T16:54:21.461Z,9.10
2022-10-19T16:56:48.442Z,9.95
2022-10-19T16:59:17.827Z,11.90
2022-10-19T17:01:45.823Z,19.65
2022-10-19T17:04:13.121Z,26.30
2022-10-19T17:06:40.610Z,30.50
2022-10-19T17:11:54.460Z,31.27
2022-10-19T17:14:20.928Z,31.15
2022-10-19T17:16:47.523Z,32.10
2022-10-19T17:19:14.132Z,34.10
2022-10-19T17:21:42.202Z,36.72
2022-10-19T17:24:20.203Z,38.63
2022-10-19T17:26:46.828Z,40.72
2022-10-19T17:29:13.889Z,40.17
2022-10-19T17:31:41.471Z,37.22
2022-10-19T17:34:08.456Z,31.17
2022-10-19T17:36:38.318Z,29.37
2022-10-19T17:39:12.371Z,21.48
2022-10-19T17:41:38.869Z,20.48
2022-10-19T17:44:06.008Z,20.33
2022-10-19T17:46:34.553Z,20.13
2022-10-19T17:49:01.438Z,19.73
2022-10-19T17:51:30.106Z,20.00
2022-10-19T17:53:59.553Z,13.75
2022-10-19T17:56:26.885Z,12.25
2022-10-19T17:58:54.168Z,10.43
2022-10-19T18:01:22.457Z,8.87
2022-10-19T18:03:50.140Z,8.80
2022-10-19T18:06:25.621Z,8.35
2022-10-19T18:08:53.989Z,7.97
2022-10-19T18:11:26.710Z,7.65
2022-10-19T18:13:56.219Z,7.63
2022-10-19T18:16:29.453Z,7.75
2022-10-19T18:18:58.097Z,7.32
2022-10-19T18:21:27.473Z,7.40
2022-10-19T18:23:56.885Z,7.32
2022-10-19T18:26:25.606Z,7.73
2022-10-19T18:28:53.490Z,7.35
2022-10-19T18:31:22.482Z,8.32
2022-10-19T18:34:01.463Z,7.70
2022-10-19T18:36:28.460Z,7.70
2022-10-19T18:38:57.838Z,7.50
2022-10-19T18:41:25.170Z,7.45
2022-10-19T18:43:54.046Z,7.80
2022-10-19T18:46:22.335Z,7.35
2022-10-19T18:48:49.807Z,7.68
2022-10-19T18:51:17.713Z,7.77
2022-10-19T18:53:45.226Z,8.25
2022-10-19T18:56:13.739Z,8.35
2022-10-19T18:58:40.268Z,8.73
2022-10-19T19:01:10.082Z,8.68
2022-10-19T19:03:38.570Z,8.30
2022-10-19T19:06:08.031Z,8.27
2022-10-19T19:08:34.899Z,7.82
2022-10-19T19:11:22.108Z,7.93
2022-10-19T19:13:54.051Z,7.57
2022-10-19T19:16:21.494Z,7.27
2022-10-19T19:18:48.145Z,7.55
2022-10-19T19:21:17.055Z,7.30
2022-10-19T19:23:43.748Z,6.22
2022-10-19T19:26:12.756Z,5.88
2022-10-19T19:28:41.913Z,6.63
2022-10-19T19:31:10.571Z,7.10
2022-10-19T19:33:38.247Z,7.38
2022-10-19T19:36:06.423Z,7.32
2022-10-19T19:38:33.500Z,7.03
2022-10-19T19:41:03.019Z,7.13
2022-10-19T19:43:31.386Z,6.97
2022-10-19T19:46:03.152Z,6.38
2022-10-19T19:48:32.745Z,5.43
2022-10-19T19:50:59.270Z,6.07
2022-10-19T19:53:25.826Z,6.17
2022-10-19T19:55:52.299Z,6.82
2022-10-19T19:58:19.046Z,6.93
2022-10-19T20:00:46.244Z,5.72
2022-10-19T20:03:13.577Z,6.10
2022-10-19T20:05:40.744Z,9.40
2022-10-19T20:08:09.041Z,11.57
2022-10-19T20:10:40.309Z,11.52
2022-10-19T20:13:06.917Z,10.70
2022-10-19T20:15:36.641Z,8.48
2022-10-19T20:18:03.142Z,7.10
2022-10-19T20:20:29.661Z,5.38
2022-10-19T20:22:56.214Z,4.78
2022-10-19T20:25:22.747Z,3.70
2022-10-19T20:27:49.431Z,3.83
2022-10-19T20:30:15.992Z,3.50
2022-10-19T20:32:42.397Z,3.40
2022-10-19T20:35:09.238Z,3.60
2022-10-19T20:37:35.809Z,2.97
2022-10-19T20:40:07.461Z,2.88
2022-10-19T20:42:35.667Z,3.00
2022-10-19T20:45:02.581Z,3.00
2022-10-19T20:47:29.830Z,3.40
2022-10-19T20:49:56.501Z,2.97
2022-10-19T20:52:23.144Z,2.78
2022-10-19T20:54:49.585Z,3.33
2022-10-19T20:57:16.114Z,3.70
2022-10-19T20:59:43.929Z,3.63
2022-10-19T21:02:11.315Z,3.42
2022-10-19T21:04:38.002Z,3.60
2022-10-19T21:07:04.953Z,4.37
2022-10-19T21:09:32.037Z,4.20
2022-10-19T21:11:58.906Z,5.10
2022-10-19T21:14:29.063Z,4.78
2022-10-19T21:16:57.480Z,5.03
2022-10-19T21:19:25.585Z,5.80
2022-10-19T21:22:02.441Z,6.38
2022-10-19T21:24:32.416Z,7.10
2022-10-19T21:27:04.784Z,8.23
2022-10-19T21:29:31.528Z,8.73
2022-10-19T21:31:58.846Z,8.20
2022-10-19T21:34:28.574Z,8.80
2022-10-19T21:36:55.860Z,7.93
2022-10-19T21:39:22.872Z,8.10
2022-10-19T21:41:49.870Z,8.57
2022-10-19T21:44:18.231Z,8.17
2022-10-19T21:46:47.159Z,7.28
2022-10-19T21:49:15.011Z,8.13
2022-10-19T21:51:50.981Z,7.05
2022-10-19T21:54:20.088Z,8.02
2022-10-19T21:56:47.580Z,7.97
2022-10-19T21:59:14.901Z,8.35
2022-10-19T22:01:41.857Z,9.95
2022-10-19T22:04:15.410Z,9.32
2022-10-19T22:06:43.212Z,9.10
2022-10-19T22:09:13.470Z,8.93
2022-10-19T22:11:40.001Z,7.88
2022-10-19T22:14:06.596Z,6.72
2022-10-19T22:16:38.418Z,5.80
2022-10-19T22:19:09.986Z,5.97
2022-10-19T22:21:40.084Z,6.03
2022-10-19T22:24:13.415Z,4.65
2022-10-19T22:26:42.672Z,4.20
2022-10-19T22:29:09.830Z,3.90
2022-10-19T22:31:40.096Z,4.03
2022-10-19T22:34:09.770Z,3.57
2022-10-19T22:36:36.715Z,3.42
2022-10-19T22:39:04.176Z,3.60
2022-10-19T22:41:30.678Z,3.28
2022-10-19T22:43:57.135Z,3.30
2022-10-19T22:46:23.672Z,3.07
2022-10-19T22:48:50.159Z,4.95
2022-10-19T22:51:16.682Z,3.80
2022-10-19T22:53:45.794Z,3.50
2022-10-19T22:56:12.552Z,3.08
2022-10-19T22:58:39.520Z,2.90
2022-10-19T23:01:12.361Z,2.67
2022-10-19T23:03:40.369Z,2.70
2022-10-19T23:06:09.599Z,2.63
2022-10-19T23:08:36.375Z,2.90
2022-10-19T23:11:02.949Z,2.40
2022-10-19T23:13:29.494Z,2.20
2022-10-19T23:15:56.267Z,2.75
2022-10-19T23:18:22.862Z,2.58
2022-10-19T23:21:00.240Z,2.22
2022-10-19T23:23:28.439Z,1.97
2022-10-19T23:26:05.522Z,2.05
2022-10-19T23:28:35.065Z,2.05
2022-10-19T23:31:12.502Z,2.10
2022-10-19T23:33:39.417Z,2.08
2022-10-19T23:36:15.299Z,2.43
2022-10-19T23:38:44.290Z,2.08
2022-10-19T23:41:12.486Z,2.17
2022-10-19T23:43:39.810Z,2.20
2022-10-19T23:46:06.653Z,2.45
2022-10-19T23:48:34.496Z,2.20
2022-10-19T23:51:03.999Z,2.20
2022-10-19T23:53:34.661Z,2.28
2022-10-19T23:56:12.372Z,2.20
2022-10-19T23:58:39.009Z,2.22
